Rosemount, Minnesota
Current Conditions -  °F | °C
As of 12:10 AM on Friday 31 Oct 2014 (Local Time) from KSGS Reporting Station
Clear Clear  
Wind Chill: 23°   Ceiling: Unl
Heat Index: 33°   Visibility: 10mi
Dew Point: 14°   Wind: 15mph
Humidity: 45%   Direction: 360°N
Pressure: 30.36"   Gusts: 22mph
Location:  44.74°N, 93.12°W
Report Text: KSGS 310510Z AUTO 36013G19KT 10SM CLR 01/M10 A3036 RMK AO2 T00051102
Loading
Personal Weather Stations






























Interactive Weather Map
Tropical Storm Tracking
New forecast layout! Learn more

10-Day Weather Forecast

Advertisements
Track Severe Weather on mobile